sensor_id;sensor_type;location;lat;lon;timestamp;temperature;humidity
3037;DHT22;1528;52.550;13.408;2023-02-01T00:00:12;4.90;99.90
3037;DHT22;1528;52.550;13.408;2023-02-01T00:02:58;4.80;99.90
3037;DHT22;1528;52.550;13.408;2023-02-01T00:05:43;4.80;99.90
3037;DHT22;1528;52.550;13.408;2023-02-01T00:08:31;4.70;99.90
3037;DHT22;1528;52.550;13.408;2023-02-01T00:11:17;4.70;99.90
3037;DHT22;1528;52.550;13.408;2023-02-01T00:14:03;4.60;99.90
3037;DHT22;1528;52.550;13.408;2023-02-01T00:16:49;4.50;99.90
3037;DHT22;1528;52.550;13.408;2023-02-01T00:19:35;4.60;99.90
3037;DHT22;1528;52.550;13.408;2023-02-01T00:22:20;4.60;99.90
3037;DHT22;1528;52.550;13.408;2023-02-01T00:25:08;4.60;99.90
3037;DHT22;1528;52.550;13.408;2023-02-01T00:27:53;4.60;99.90
3037;DHT22;1528;52.550;13.408;2023-02-01T00:30:40;4.50;99.90
3037;DHT22;1528;52.550;13.408;2023-02-01T00:33:26;4.60;99.90
3037;DHT22;1528;52.550;13.408;2023-02-01T00:36:12;4.70;99.90
3037;DHT22;1528;52.550;13.408;2023-02-01T00:38:58;4.80;99.90
3037;DHT22;1528;52.550;13.408;2023-02-01T00:41:45;4.80;99.90
3037;DHT22;1528;52.550;13.408;2023-02-01T00:44:30;4.90;99.90
3037;DHT22;1528;52.550;13.408;2023-02-01T00:49:51;5.00;99.90
3037;DHT22;1528;52.550;13.408;2023-02-01T00:52:37;5.00;99.90
3037;DHT22;1528;52.550;13.408;2023-02-01T00:55:23;5.00;99.90
3037;DHT22;1528;52.550;13.408;2023-02-01T00:58:10;5.30;99.90
3037;DHT22;1528;52.550;13.408;2023-02-01T01:01:03;5.10;99.90
3037;DHT22;1528;52.550;13.408;2023-02-01T01:03:51;5.20;99.90
3037;DHT22;1528;52.550;13.408;2023-02-01T01:06:37;5.00;99.90
3037;DHT22;1528;52.550;13.408;2023-02-01T01:09:23;5.10;99.90
3037;DHT22;1528;52.550;13.408;2023-02-01T01:12:09;5.00;99.90
3037;DHT22;1528;52.550;13.408;2023-02-01T01:14:56;5.10;99.90
3037;DHT22;1528;52.550;13.408;2023-02-01T01:17:41;5.10;99.90
3037;DHT22;1528;52.550;13.408;2023-02-01T01:20:27;5.10;99.90
3037;DHT22;1528;52.550;13.408;2023-02-01T01:23:12;5.00;99.90
3037;DHT22;1528;52.550;13.408;2023-02-01T01:25:58;5.00;98.10
3037;DHT22;1528;52.550;13.408;2023-02-01T01:28:44;5.20;96.80
3037;DHT22;1528;52.550;13.408;2023-02-01T01:31:31;5.20;93.50
3037;DHT22;1528;52.550;13.408;2023-02-01T01:34:16;5.20;93.80
3037;DHT22;1528;52.550;13.408;2023-02-01T01:37:02;5.20;91.50
3037;DHT22;1528;52.550;13.408;2023-02-01T01:39:47;5.10;91.30
3037;DHT22;1528;52.550;13.408;2023-02-01T01:42:37;5.20;90.40
3037;DHT22;1528;52.550;13.408;2023-02-01T01:45:25;5.10;86.40
3037;DHT22;1528;52.550;13.408;2023-02-01T01:48:17;5.20;85.20
3037;DHT22;1528;52.550;13.408;2023-02-01T01:51:09;5.10;84.00
3037;DHT22;1528;52.550;13.408;2023-02-01T01:54:00;5.20;83.10
3037;DHT22;1528;52.550;13.408;2023-02-01T01:56:50;5.20;81.40
3037;DHT22;1528;52.550;13.408;2023-02-01T01:59:37;5.20;82.20
3037;DHT22;1528;52.550;13.408;2023-02-01T02:02:23;5.30;79.20
3037;DHT22;1528;52.550;13.408;2023-02-01T02:05:12;5.30;77.90
3037;DHT22;1528;52.550;13.408;2023-02-01T02:07:59;5.20;78.80
3037;DHT22;1528;52.550;13.408;2023-02-01T02:10:44;5.20;78.50
3037;DHT22;1528;52.550;13.408;2023-02-01T02:13:49;5.20;76.80
3037;DHT22;1528;52.550;13.408;2023-02-01T02:16:45;5.30;76.90
3037;DHT22;1528;52.550;13.408;2023-02-01T02:20:15;5.20;77.60
3037;DHT22;1528;52.550;13.408;2023-02-01T02:23:39;5.30;76.90
3037;DHT22;1528;52.550;13.408;2023-02-01T02:26:44;5.30;74.60
3037;DHT22;1528;52.550;13.408;2023-02-01T02:33:48;5.30;74.30
3037;DHT22;1528;52.550;13.408;2023-02-01T02:36:43;5.30;73.40
3037;DHT22;1528;52.550;13.408;2023-02-01T02:39:41;5.30;72.50
3037;DHT22;1528;52.550;13.408;2023-02-01T02:42:34;5.50;72.60
3037;DHT22;1528;52.550;13.408;2023-02-01T02:45:44;5.20;73.80
3037;DHT22;1528;52.550;13.408;2023-02-01T02:48:57;5.20;75.70
3037;DHT22;1528;52.550;13.408;2023-02-01T02:51:49;5.30;74.10
3037;DHT22;1528;52.550;13.408;2023-02-01T02:54:54;5.30;73.70
3037;DHT22;1528;52.550;13.408;2023-02-01T02:57:43;5.30;72.50
3037;DHT22;1528;52.550;13.408;2023-02-01T03:00:47;5.20;73.20
3037;DHT22;1528;52.550;13.408;2023-02-01T03:03:53;5.30;73.10
3037;DHT22;1528;52.550;13.408;2023-02-01T03:06:53;5.30;72.90
3037;DHT22;1528;52.550;13.408;2023-02-01T03:09:40;5.40;71.20
3037;DHT22;1528;52.550;13.408;2023-02-01T03:12:31;5.40;70.80
3037;DHT22;1528;52.550;13.408;2023-02-01T03:15:48;5.40;71.10
3037;DHT22;1528;52.550;13.408;2023-02-01T03:18:36;5.40;70.50
3037;DHT22;1528;52.550;13.408;2023-02-01T03:21:29;5.40;71.20
3037;DHT22;1528;52.550;13.408;2023-02-01T03:24:18;5.40;72.10
3037;DHT22;1528;52.550;13.408;2023-02-01T03:27:09;5.30;71.60
3037;DHT22;1528;52.550;13.408;2023-02-01T03:29:59;5.40;70.40
3037;DHT22;1528;52.550;13.408;2023-02-01T03:32:48;5.40;69.40
3037;DHT22;1528;52.550;13.408;2023-02-01T03:35:48;5.40;70.00
3037;DHT22;1528;52.550;13.408;2023-02-01T03:38:44;5.40;70.10
3037;DHT22;1528;52.550;13.408;2023-02-01T03:41:41;5.40;68.70
3037;DHT22;1528;52.550;13.408;2023-02-01T03:44:31;5.60;69.50
3037;DHT22;1528;52.550;13.408;2023-02-01T03:47:19;5.50;69.10
3037;DHT22;1528;52.550;13.408;2023-02-01T03:50:08;5.60;68.40
3037;DHT22;1528;52.550;13.408;2023-02-01T03:52:59;5.40;67.80
3037;DHT22;1528;52.550;13.408;2023-02-01T03:55:48;5.50;68.20
3037;DHT22;1528;52.550;13.408;2023-02-01T03:58:35;5.50;67.90
3037;DHT22;1528;52.550;13.408;2023-02-01T04:01:20;5.60;67.10
3037;DHT22;1528;52.550;13.408;2023-02-01T04:04:07;5.50;67.70
3037;DHT22;1528;52.550;13.408;2023-02-01T04:06:53;5.50;67.20
3037;DHT22;1528;52.550;13.408;2023-02-01T04:09:39;5.60;66.90
3037;DHT22;1528;52.550;13.408;2023-02-01T04:12:26;5.60;67.30
3037;DHT22;1528;52.550;13.408;2023-02-01T04:15:11;5.50;66.80
3037;DHT22;1528;52.550;13.408;2023-02-01T04:17:57;5.60;67.20
3037;DHT22;1528;52.550;13.408;2023-02-01T04:20:43;5.60;67.00
3037;DHT22;1528;52.550;13.408;2023-02-01T04:23:29;5.80;65.70
3037;DHT22;1528;52.550;13.408;2023-02-01T04:26:16;5.80;64.10
3037;DHT22;1528;52.550;13.408;2023-02-01T04:29:02;5.70;64.60
3037;DHT22;1528;52.550;13.408;2023-02-01T04:31:48;5.80;65.10
3037;DHT22;1528;52.550;13.408;2023-02-01T04:34:34;5.80;64.60
3037;DHT22;1528;52.550;13.408;2023-02-01T04:37:20;5.70;64.40
3037;DHT22;1528;52.550;13.408;2023-02-01T04:40:06;5.80;64.10
3037;DHT22;1528;52.550;13.408;2023-02-01T04:42:52;5.80;64.50
3037;DHT22;1528;52.550;13.408;2023-02-01T04:45:39;5.90;63.40
3037;DHT22;1528;52.550;13.408;2023-02-01T04:48:24;6.00;63.70
3037;DHT22;1528;52.550;13.408;2023-02-01T04:51:11;6.00;63.40
3037;DHT22;1528;52.550;13.408;2023-02-01T04:53:57;6.10;62.10
3037;DHT22;1528;52.550;13.408;2023-02-01T04:56:43;6.10;62.00
3037;DHT22;1528;52.550;13.408;2023-02-01T04:59:29;6.10;62.40
3037;DHT22;1528;52.550;13.408;2023-02-01T05:02:16;6.20;61.70
3037;DHT22;1528;52.550;13.408;2023-02-01T05:05:01;6.20;60.80
3037;DHT22;1528;52.550;13.408;2023-02-01T05:07:47;6.30;60.60
3037;DHT22;1528;52.550;13.408;2023-02-01T05:10:33;6.30;59.80
3037;DHT22;1528;52.550;13.408;2023-02-01T05:13:18;6.30;59.40
3037;DHT22;1528;52.550;13.408;2023-02-01T05:16:22;6.30;59.40
3037;DHT22;1528;52.550;13.408;2023-02-01T05:19:09;6.30;59.30
3037;DHT22;1528;52.550;13.408;2023-02-01T05:21:54;6.20;60.70
3037;DHT22;1528;52.550;13.408;2023-02-01T05:24:40;6.30;59.50
3037;DHT22;1528;52.550;13.408;2023-02-01T05:27:26;6.30;58.90
3037;DHT22;1528;52.550;13.408;2023-02-01T05:30:14;6.40;58.80
3037;DHT22;1528;52.550;13.408;2023-02-01T05:32:59;6.30;58.30
3037;DHT22;1528;52.550;13.408;2023-02-01T05:35:46;6.30;58.50
3037;DHT22;1528;52.550;13.408;2023-02-01T05:38:32;6.30;58.10
3037;DHT22;1528;52.550;13.408;2023-02-01T05:41:17;6.40;58.30
3037;DHT22;1528;52.550;13.408;2023-02-01T05:44:03;6.40;57.90
3037;DHT22;1528;52.550;13.408;2023-02-01T05:46:51;6.40;57.20
3037;DHT22;1528;52.550;13.408;2023-02-01T05:49:37;6.40;57.00
3037;DHT22;1528;52.550;13.408;2023-02-01T05:52:24;6.40;56.40
3037;DHT22;1528;52.550;13.408;2023-02-01T05:55:09;6.30;57.40
3037;DHT22;1528;52.550;13.408;2023-02-01T05:57:55;6.30;58.10
3037;DHT22;1528;52.550;13.408;2023-02-01T06:00:41;6.30;57.50
3037;DHT22;1528;52.550;13.408;2023-02-01T06:03:27;6.30;57.70
3037;DHT22;1528;52.550;13.408;2023-02-01T06:06:12;6.20;57.60
3037;DHT22;1528;52.550;13.408;2023-02-01T06:08:59;6.20;58.60
3037;DHT22;1528;52.550;13.408;2023-02-01T06:11:45;6.20;57.90
3037;DHT22;1528;52.550;13.408;2023-02-01T06:14:30;6.30;58.00
3037;DHT22;1528;52.550;13.408;2023-02-01T06:17:16;6.20;58.70
3037;DHT22;1528;52.550;13.408;2023-02-01T06:20:02;6.30;59.30
3037;DHT22;1528;52.550;13.408;2023-02-01T06:22:48;6.30;60.10
3037;DHT22;1528;52.550;13.408;2023-02-01T06:25:35;6.20;62.60
3037;DHT22;1528;52.550;13.408;2023-02-01T06:28:21;6.10;64.50
3037;DHT22;1528;52.550;13.408;2023-02-01T06:31:07;6.00;66.00
3037;DHT22;1528;52.550;13.408;2023-02-01T06:33:53;5.90;74.30
3037;DHT22;1528;52.550;13.408;2023-02-01T06:36:38;5.60;86.60
3037;DHT22;1528;52.550;13.408;2023-02-01T06:39:24;5.50;92.10
3037;DHT22;1528;52.550;13.408;2023-02-01T06:42:13;5.50;99.90
3037;DHT22;1528;52.550;13.408;2023-02-01T06:44:58;5.50;93.10
3037;DHT22;1528;52.550;13.408;2023-02-01T06:47:44;5.40;90.70
3037;DHT22;1528;52.550;13.408;2023-02-01T06:50:29;5.50;91.10
3037;DHT22;1528;52.550;13.408;2023-02-01T06:53:15;5.40;92.80
3037;DHT22;1528;52.550;13.408;2023-02-01T06:56:02;5.50;91.40
3037;DHT22;1528;52.550;13.408;2023-02-01T06:58:50;5.50;87.60
3037;DHT22;1528;52.550;13.408;2023-02-01T07:01:36;5.50;82.30
3037;DHT22;1528;52.550;13.408;2023-02-01T07:04:21;5.60;79.80
3037;DHT22;1528;52.550;13.408;2023-02-01T07:07:07;5.60;74.60
3037;DHT22;1528;52.550;13.408;2023-02-01T07:09:53;5.60;74.90
3037;DHT22;1528;52.550;13.408;2023-02-01T07:12:38;5.70;74.30
3037;DHT22;1528;52.550;13.408;2023-02-01T07:15:25;5.80;71.30
3037;DHT22;1528;52.550;13.408;2023-02-01T07:18:11;5.80;69.40
3037;DHT22;1528;52.550;13.408;2023-02-01T07:20:58;5.80;70.90
3037;DHT22;1528;52.550;13.408;2023-02-01T07:23:44;5.70;90.90
3037;DHT22;1528;52.550;13.408;2023-02-01T07:26:30;5.60;98.90
3037;DHT22;1528;52.550;13.408;2023-02-01T07:29:16;5.40;99.90
3037;DHT22;1528;52.550;13.408;2023-02-01T07:32:03;5.30;94.90
3037;DHT22;1528;52.550;13.408;2023-02-01T07:34:49;5.20;99.90
3037;DHT22;1528;52.550;13.408;2023-02-01T07:37:34;5.20;99.90
3037;DHT22;1528;52.550;13.408;2023-02-01T07:40:20;5.20;99.90
3037;DHT22;1528;52.550;13.408;2023-02-01T07:43:12;5.30;95.20
3037;DHT22;1528;52.550;13.408;2023-02-01T07:45:58;5.40;93.40
3037;DHT22;1528;52.550;13.408;2023-02-01T07:48:45;5.50;92.70
3037;DHT22;1528;52.550;13.408;2023-02-01T07:51:31;5.40;99.90
3037;DHT22;1528;52.550;13.408;2023-02-01T07:54:16;5.20;99.90
3037;DHT22;1528;52.550;13.408;2023-02-01T07:57:02;4.90;99.90
3037;DHT22;1528;52.550;13.408;2023-02-01T07:59:47;4.80;99.90
3037;DHT22;1528;52.550;13.408;2023-02-01T08:02:50;4.50;99.90
3037;DHT22;1528;52.550;13.408;2023-02-01T08:05:38;4.40;99.90
3037;DHT22;1528;52.550;13.408;2023-02-01T08:08:26;4.30;99.90
3037;DHT22;1528;52.550;13.408;2023-02-01T08:11:17;4.30;99.90
3037;DHT22;1528;52.550;13.408;2023-02-01T08:14:35;4.20;99.90
3037;DHT22;1528;52.550;13.408;2023-02-01T08:17:52;4.10;99.90
3037;DHT22;1528;52.550;13.408;2023-02-01T08:26:12;3.90;99.90
3037;DHT22;1528;52.550;13.408;2023-02-01T08:29:03;4.00;99.90
3037;DHT22;1528;52.550;13.408;2023-02-01T09:02:50;4.50;99.90
3037;DHT22;1528;52.550;13.408;2023-02-01T09:05:45;4.50;99.90
3037;DHT22;1528;52.550;13.408;2023-02-01T09:19:43;4.70;99.90
3037;DHT22;1528;52.550;13.408;2023-02-01T09:22:29;4.80;99.90
3037;DHT22;1528;52.550;13.408;2023-02-01T09:25:19;4.90;99.90
3037;DHT22;1528;52.550;13.408;2023-02-01T09:28:05;4.90;99.90
3037;DHT22;1528;52.550;13.408;2023-02-01T09:30:56;4.90;99.90
3037;DHT22;1528;52.550;13.408;2023-02-01T09:33:42;4.70;99.90
3037;DHT22;1528;52.550;13.408;2023-02-01T09:40:25;4.60;99.90
3037;DHT22;1528;52.550;13.408;2023-02-01T09:43:21;4.60;99.90
3037;DHT22;1528;52.550;13.408;2023-02-01T09:46:22;4.70;99.90
3037;DHT22;1528;52.550;13.408;2023-02-01T09:49:12;4.70;99.90
3037;DHT22;1528;52.550;13.408;2023-02-01T09:52:15;4.50;99.90
3037;DHT22;1528;52.550;13.408;2023-02-01T09:55:13;4.60;99.90
3037;DHT22;1528;52.550;13.408;2023-02-01T09:58:06;4.60;99.90
3037;DHT22;1528;52.550;13.408;2023-02-01T10:00:55;4.60;99.90
3037;DHT22;1528;52.550;13.408;2023-02-01T10:03:42;4.80;99.90
3037;DHT22;1528;52.550;13.408;2023-02-01T10:06:36;4.80;99.90
3037;DHT22;1528;52.550;13.408;2023-02-01T10:09:38;4.80;99.90
3037;DHT22;1528;52.550;13.408;2023-02-01T10:12:57;4.70;99.90
3037;DHT22;1528;52.550;13.408;2023-02-01T10:15:55;4.80;99.90
3037;DHT22;1528;52.550;13.408;2023-02-01T10:19:05;4.60;99.90
3037;DHT22;1528;52.550;13.408;2023-02-01T10:21:56;4.60;99.90
3037;DHT22;1528;52.550;13.408;2023-02-01T10:24:46;4.60;99.90
3037;DHT22;1528;52.550;13.408;2023-02-01T10:27:41;4.60;99.90
3037;DHT22;1528;52.550;13.408;2023-02-01T10:30:30;4.60;99.90
3037;DHT22;1528;52.550;13.408;2023-02-01T10:33:21;4.80;99.90
3037;DHT22;1528;52.550;13.408;2023-02-01T10:36:14;4.70;99.90
3037;DHT22;1528;52.550;13.408;2023-02-01T10:39:04;4.70;99.90
3037;DHT22;1528;52.550;13.408;2023-02-01T10:41:52;5.00;99.90
3037;DHT22;1528;52.550;13.408;2023-02-01T10:44:43;5.00;99.90
3037;DHT22;1528;52.550;13.408;2023-02-01T10:47:31;5.00;99.90
3037;DHT22;1528;52.550;13.408;2023-02-01T10:50:33;5.10;99.90
3037;DHT22;1528;52.550;13.408;2023-02-01T10:53:24;4.80;99.90
3037;DHT22;1528;52.550;13.408;2023-02-01T10:56:22;4.90;99.90
3037;DHT22;1528;52.550;13.408;2023-02-01T10:59:15;4.80;99.90
3037;DHT22;1528;52.550;13.408;2023-02-01T11:02:13;4.70;99.90
3037;DHT22;1528;52.550;13.408;2023-02-01T11:05:04;4.80;99.90
3037;DHT22;1528;52.550;13.408;2023-02-01T11:07:56;4.80;99.90
3037;DHT22;1528;52.550;13.408;2023-02-01T11:10:44;4.70;99.90
3037;DHT22;1528;52.550;13.408;2023-02-01T11:13:37;4.80;99.90
3037;DHT22;1528;52.550;13.408;2023-02-01T11:16:33;4.80;99.90
3037;DHT22;1528;52.550;13.408;2023-02-01T11:19:19;5.00;99.90
3037;DHT22;1528;52.550;13.408;2023-02-01T11:22:06;5.20;99.90
3037;DHT22;1528;52.550;13.408;2023-02-01T11:25:01;5.20;99.90
3037;DHT22;1528;52.550;13.408;2023-02-01T11:27:54;5.30;99.90
3037;DHT22;1528;52.550;13.408;2023-02-01T11:30:45;5.40;99.90
3037;DHT22;1528;52.550;13.408;2023-02-01T11:33:34;5.50;99.90
3037;DHT22;1528;52.550;13.408;2023-02-01T11:36:26;5.60;99.90
3037;DHT22;1528;52.550;13.408;2023-02-01T11:39:24;5.60;99.90
3037;DHT22;1528;52.550;13.408;2023-02-01T11:42:15;5.50;99.90
3037;DHT22;1528;52.550;13.408;2023-02-01T11:45:18;5.70;99.90
3037;DHT22;1528;52.550;13.408;2023-02-01T11:48:08;5.70;99.90
3037;DHT22;1528;52.550;13.408;2023-02-01T11:51:08;5.80;99.90
3037;DHT22;1528;52.550;13.408;2023-02-01T11:54:24;5.80;99.90
3037;DHT22;1528;52.550;13.408;2023-02-01T11:57:30;5.90;99.90
3037;DHT22;1528;52.550;13.408;2023-02-01T12:00:38;6.10;99.90
3037;DHT22;1528;52.550;13.408;2023-02-01T12:03:53;5.90;99.90
3037;DHT22;1528;52.550;13.408;2023-02-01T12:06:48;6.10;99.90
3037;DHT22;1528;52.550;13.408;2023-02-01T12:09:44;6.00;99.90
3037;DHT22;1528;52.550;13.408;2023-02-01T12:12:42;6.30;99.90
3037;DHT22;1528;52.550;13.408;2023-02-01T12:15:41;6.40;99.90
3037;DHT22;1528;52.550;13.408;2023-02-01T12:18:52;6.50;99.90
3037;DHT22;1528;52.550;13.408;2023-02-01T12:21:58;6.30;99.90
3037;DHT22;1528;52.550;13.408;2023-02-01T12:25:11;6.40;99.90
3037;DHT22;1528;52.550;13.408;2023-02-01T12:28:35;6.40;99.90
3037;DHT22;1528;52.550;13.408;2023-02-01T12:31:47;6.50;99.90
3037;DHT22;1528;52.550;13.408;2023-02-01T12:35:24;6.50;99.90
3037;DHT22;1528;52.550;13.408;2023-02-01T12:38:49;6.50;99.90
3037;DHT22;1528;52.550;13.408;2023-02-01T12:41:50;6.40;99.90
3037;DHT22;1528;52.550;13.408;2023-02-01T12:44:43;6.50;99.90
3037;DHT22;1528;52.550;13.408;2023-02-01T12:47:35;6.30;99.90
3037;DHT22;1528;52.550;13.408;2023-02-01T12:50:26;6.30;99.90
3037;DHT22;1528;52.550;13.408;2023-02-01T12:53:21;6.30;99.90
3037;DHT22;1528;52.550;13.408;2023-02-01T12:56:12;6.50;99.90
3037;DHT22;1528;52.550;13.408;2023-02-01T12:59:02;6.30;99.90
3037;DHT22;1528;52.550;13.408;2023-02-01T13:01:54;6.60;99.90
3037;DHT22;1528;52.550;13.408;2023-02-01T13:04:52;6.40;99.90
3037;DHT22;1528;52.550;13.408;2023-02-01T13:07:42;6.40;99.90
3037;DHT22;1528;52.550;13.408;2023-02-01T13:10:33;6.50;99.90
3037;DHT22;1528;52.550;13.408;2023-02-01T13:13:30;6.60;99.90
3037;DHT22;1528;52.550;13.408;2023-02-01T13:16:26;6.50;99.90
3037;DHT22;1528;52.550;13.408;2023-02-01T13:22:46;6.30;99.90
3037;DHT22;1528;52.550;13.408;2023-02-01T13:25:43;6.30;99.90
3037;DHT22;1528;52.550;13.408;2023-02-01T13:28:42;6.30;99.90
3037;DHT22;1528;52.550;13.408;2023-02-01T13:31:50;6.40;99.90
3037;DHT22;1528;52.550;13.408;2023-02-01T13:38:15;6.60;99.90
3037;DHT22;1528;52.550;13.408;2023-02-01T13:41:17;6.60;99.90
3037;DHT22;1528;52.550;13.408;2023-02-01T13:44:11;6.60;99.90
3037;DHT22;1528;52.550;13.408;2023-02-01T13:47:02;6.70;99.90
3037;DHT22;1528;52.550;13.408;2023-02-01T13:49:51;6.70;99.90
3037;DHT22;1528;52.550;13.408;2023-02-01T13:52:39;6.70;99.90
3037;DHT22;1528;52.550;13.408;2023-02-01T13:55:35;6.80;99.90
3037;DHT22;1528;52.550;13.408;2023-02-01T13:58:22;6.80;99.90
3037;DHT22;1528;52.550;13.408;2023-02-01T14:01:34;6.90;99.90
3037;DHT22;1528;52.550;13.408;2023-02-01T14:04:45;7.10;99.90
3037;DHT22;1528;52.550;13.408;2023-02-01T14:07:32;7.00;99.90
3037;DHT22;1528;52.550;13.408;2023-02-01T14:10:47;7.00;96.30
3037;DHT22;1528;52.550;13.408;2023-02-01T14:13:45;7.00;98.50
3037;DHT22;1528;52.550;13.408;2023-02-01T14:16:40;7.00;99.90
3037;DHT22;1528;52.550;13.408;2023-02-01T14:19:28;6.40;99.90
3037;DHT22;1528;52.550;13.408;2023-02-01T14:22:32;5.90;99.90
3037;DHT22;1528;52.550;13.408;2023-02-01T14:25:18;5.60;99.90
3037;DHT22;1528;52.550;13.408;2023-02-01T14:28:22;5.60;99.90
3037;DHT22;1528;52.550;13.408;2023-02-01T14:31:26;5.70;99.90
3037;DHT22;1528;52.550;13.408;2023-02-01T14:34:25;5.70;99.90
3037;DHT22;1528;52.550;13.408;2023-02-01T14:37:26;5.80;99.90
3037;DHT22;1528;52.550;13.408;2023-02-01T14:40:19;5.90;99.90
3037;DHT22;1528;52.550;13.408;2023-02-01T14:43:08;6.00;99.90
3037;DHT22;1528;52.550;13.408;2023-02-01T14:45:55;6.20;99.90
3037;DHT22;1528;52.550;13.408;2023-02-01T14:48:45;6.40;99.90
3037;DHT22;1528;52.550;13.408;2023-02-01T14:51:32;6.40;99.90
3037;DHT22;1528;52.550;13.408;2023-02-01T14:54:19;6.40;99.90
3037;DHT22;1528;52.550;13.408;2023-02-01T14:57:05;6.50;99.90
3037;DHT22;1528;52.550;13.408;2023-02-01T14:59:59;6.50;99.90
3037;DHT22;1528;52.550;13.408;2023-02-01T15:02:48;6.60;99.90
3037;DHT22;1528;52.550;13.408;2023-02-01T15:05:35;6.60;99.90
3037;DHT22;1528;52.550;13.408;2023-02-01T15:08:26;6.40;94.10
3037;DHT22;1528;52.550;13.408;2023-02-01T15:11:15;6.50;94.60
3037;DHT22;1528;52.550;13.408;2023-02-01T15:14:01;6.50;98.70
3037;DHT22;1528;52.550;13.408;2023-02-01T15:16:47;6.40;92.20
3037;DHT22;1528;52.550;13.408;2023-02-01T15:19:54;6.00;99.90
3037;DHT22;1528;52.550;13.408;2023-02-01T15:22:53;5.50;99.90
3037;DHT22;1528;52.550;13.408;2023-02-01T15:25:45;5.40;99.90
3037;DHT22;1528;52.550;13.408;2023-02-01T15:28:32;4.90;99.90
3037;DHT22;1528;52.550;13.408;2023-02-01T15:31:32;4.70;99.90
3037;DHT22;1528;52.550;13.408;2023-02-01T15:34:19;4.70;99.90
3037;DHT22;1528;52.550;13.408;2023-02-01T15:37:07;4.70;99.90
3037;DHT22;1528;52.550;13.408;2023-02-01T15:40:05;4.60;99.90
3037;DHT22;1528;52.550;13.408;2023-02-01T15:43:00;4.60;99.90
3037;DHT22;1528;52.550;13.408;2023-02-01T15:45:46;4.50;99.90
3037;DHT22;1528;52.550;13.408;2023-02-01T15:48:36;4.40;99.90
3037;DHT22;1528;52.550;13.408;2023-02-01T15:51:25;4.40;99.90
3037;DHT22;1528;52.550;13.408;2023-02-01T15:58:20;4.10;99.90
3037;DHT22;1528;52.550;13.408;2023-02-01T16:03:50;3.70;99.90
3037;DHT22;1528;52.550;13.408;2023-02-01T16:06:50;3.50;99.90
3037;DHT22;1528;52.550;13.408;2023-02-01T16:10:13;3.30;99.90
3037;DHT22;1528;52.550;13.408;2023-02-01T16:25:12;3.00;99.90
3037;DHT22;1528;52.550;13.408;2023-02-01T16:28:26;2.90;99.90
3037;DHT22;1528;52.550;13.408;2023-02-01T16:31:47;2.80;99.90
3037;DHT22;1528;52.550;13.408;2023-02-01T22:14:22;4.40;99.90
3037;DHT22;1528;52.550;13.408;2023-02-01T22:17:07;4.30;99.90
3037;DHT22;1528;52.550;13.408;2023-02-01T22:19:53;4.40;99.90
3037;DHT22;1528;52.550;13.408;2023-02-01T22:22:39;4.40;99.90
3037;DHT22;1528;52.550;13.408;2023-02-01T22:25:24;4.50;99.90
3037;DHT22;1528;52.550;13.408;2023-02-01T22:28:11;4.50;99.90
3037;DHT22;1528;52.550;13.408;2023-02-01T22:31:01;4.50;99.90
3037;DHT22;1528;52.550;13.408;2023-02-01T22:33:48;4.80;99.90
3037;DHT22;1528;52.550;13.408;2023-02-01T22:36:34;4.70;99.90
3037;DHT22;1528;52.550;13.408;2023-02-01T22:39:20;4.70;99.90
3037;DHT22;1528;52.550;13.408;2023-02-01T22:42:07;4.70;99.90
3037;DHT22;1528;52.550;13.408;2023-02-01T22:44:53;4.70;99.90
3037;DHT22;1528;52.550;13.408;2023-02-01T22:47:40;4.90;99.90
3037;DHT22;1528;52.550;13.408;2023-02-01T22:50:25;4.80;99.90
3037;DHT22;1528;52.550;13.408;2023-02-01T22:53:11;4.80;99.90
3037;DHT22;1528;52.550;13.408;2023-02-01T22:55:58;5.00;99.90
3037;DHT22;1528;52.550;13.408;2023-02-01T22:58:44;5.00;99.90
3037;DHT22;1528;52.550;13.408;2023-02-01T23:01:30;5.00;99.90
3037;DHT22;1528;52.550;13.408;2023-02-01T23:04:18;4.90;99.90
3037;DHT22;1528;52.550;13.408;2023-02-01T23:07:04;5.00;99.90
3037;DHT22;1528;52.550;13.408;2023-02-01T23:09:50;5.00;99.90
3037;DHT22;1528;52.550;13.408;2023-02-01T23:12:36;5.00;99.90
3037;DHT22;1528;52.550;13.408;2023-02-01T23:15:22;5.10;99.90
3037;DHT22;1528;52.550;13.408;2023-02-01T23:18:07;5.00;99.90
3037;DHT22;1528;52.550;13.408;2023-02-01T23:20:54;5.00;99.90
3037;DHT22;1528;52.550;13.408;2023-02-01T23:23:44;5.00;99.90
3037;DHT22;1528;52.550;13.408;2023-02-01T23:26:30;5.00;99.90
3037;DHT22;1528;52.550;13.408;2023-02-01T23:29:17;5.30;99.90
3037;DHT22;1528;52.550;13.408;2023-02-01T23:32:03;5.10;99.90
3037;DHT22;1528;52.550;13.408;2023-02-01T23:34:49;5.00;99.90
3037;DHT22;1528;52.550;13.408;2023-02-01T23:37:36;5.00;99.90
3037;DHT22;1528;52.550;13.408;2023-02-01T23:40:24;5.00;99.90
3037;DHT22;1528;52.550;13.408;2023-02-01T23:43:09;5.10;99.90
3037;DHT22;1528;52.550;13.408;2023-02-01T23:46:13;5.00;99.90
3037;DHT22;1528;52.550;13.408;2023-02-01T23:49:01;5.10;99.90
3037;DHT22;1528;52.550;13.408;2023-02-01T23:51:46;5.10;99.90
3037;DHT22;1528;52.550;13.408;2023-02-01T23:54:37;5.20;99.70
3037;DHT22;1528;52.550;13.408;2023-02-01T23:57:23;5.20;97.50
